sensor_id;sensor_type;location;lat;lon;timestamp;P1;durP1;ratioP1;P2;durP2;ratioP2
5569;SDS011;2808;51.240;6.794;2023-05-10T00:00:54;16.20;;;10.20;;
5569;SDS011;2808;51.240;6.794;2023-05-10T00:03:21;15.20;;;10.40;;
5569;SDS011;2808;51.240;6.794;2023-05-10T00:05:50;19.40;;;10.20;;
5569;SDS011;2808;51.240;6.794;2023-05-10T00:08:17;15.90;;;10.40;;
5569;SDS011;2808;51.240;6.794;2023-05-10T00:10:45;16.47;;;10.50;;
5569;SDS011;2808;51.240;6.794;2023-05-10T00:13:12;17.73;;;10.70;;
5569;SDS011;2808;51.240;6.794;2023-05-10T00:15:40;16.80;;;11.00;;
5569;SDS011;2808;51.240;6.794;2023-05-10T00:18:07;16.63;;;10.53;;
5569;SDS011;2808;51.240;6.794;2023-05-10T00:20:36;16.27;;;10.30;;
5569;SDS011;2808;51.240;6.794;2023-05-10T00:23:04;16.47;;;10.40;;
5569;SDS011;2808;51.240;6.794;2023-05-10T00:25:32;17.97;;;12.03;;
5569;SDS011;2808;51.240;6.794;2023-05-10T00:27:59;16.60;;;11.17;;
5569;SDS011;2808;51.240;6.794;2023-05-10T00:30:27;17.47;;;10.60;;
5569;SDS011;2808;51.240;6.794;2023-05-10T00:32:54;18.67;;;11.10;;
5569;SDS011;2808;51.240;6.794;2023-05-10T00:35:22;18.97;;;11.50;;
5569;SDS011;2808;51.240;6.794;2023-05-10T00:37:49;17.40;;;10.97;;
5569;SDS011;2808;51.240;6.794;2023-05-10T00:40:18;18.33;;;11.67;;
5569;SDS011;2808;51.240;6.794;2023-05-10T00:42:45;18.00;;;10.63;;
5569;SDS011;2808;51.240;6.794;2023-05-10T00:45:13;17.00;;;10.73;;
5569;SDS011;2808;51.240;6.794;2023-05-10T00:47:40;17.50;;;11.20;;
5569;SDS011;2808;51.240;6.794;2023-05-10T00:50:08;20.40;;;10.50;;
5569;SDS011;2808;51.240;6.794;2023-05-10T00:52:36;20.10;;;11.07;;
5569;SDS011;2808;51.240;6.794;2023-05-10T00:55:03;15.27;;;10.20;;
5569;SDS011;2808;51.240;6.794;2023-05-10T00:57:34;15.23;;;9.33;;
5569;SDS011;2808;51.240;6.794;2023-05-10T01:00:01;14.90;;;9.07;;
5569;SDS011;2808;51.240;6.794;2023-05-10T01:02:29;14.50;;;8.83;;
5569;SDS011;2808;51.240;6.794;2023-05-10T01:04:57;15.10;;;8.47;;
5569;SDS011;2808;51.240;6.794;2023-05-10T01:07:25;13.27;;;8.77;;
5569;SDS011;2808;51.240;6.794;2023-05-10T01:09:52;14.27;;;9.10;;
5569;SDS011;2808;51.240;6.794;2023-05-10T01:12:19;15.10;;;9.07;;
5569;SDS011;2808;51.240;6.794;2023-05-10T01:14:48;13.57;;;8.87;;
5569;SDS011;2808;51.240;6.794;2023-05-10T01:17:16;12.87;;;8.30;;
5569;SDS011;2808;51.240;6.794;2023-05-10T01:19:43;15.57;;;9.17;;
5569;SDS011;2808;51.240;6.794;2023-05-10T01:22:19;12.53;;;7.93;;
5569;SDS011;2808;51.240;6.794;2023-05-10T01:25:08;12.83;;;7.60;;
5569;SDS011;2808;51.240;6.794;2023-05-10T01:27:53;18.70;;;9.40;;
5569;SDS011;2808;51.240;6.794;2023-05-10T01:31:08;15.80;;;8.90;;
5569;SDS011;2808;51.240;6.794;2023-05-10T01:33:47;14.63;;;9.07;;
5569;SDS011;2808;51.240;6.794;2023-05-10T01:36:19;15.67;;;8.60;;
5569;SDS011;2808;51.240;6.794;2023-05-10T01:38:53;17.10;;;8.07;;
5569;SDS011;2808;51.240;6.794;2023-05-10T01:41:28;17.53;;;8.83;;
5569;SDS011;2808;51.240;6.794;2023-05-10T01:44:10;12.70;;;8.63;;
5569;SDS011;2808;51.240;6.794;2023-05-10T01:46:44;16.47;;;8.90;;
5569;SDS011;2808;51.240;6.794;2023-05-10T01:49:20;13.60;;;8.47;;
5569;SDS011;2808;51.240;6.794;2023-05-10T01:51:52;15.40;;;9.23;;
5569;SDS011;2808;51.240;6.794;2023-05-10T01:54:24;16.73;;;9.50;;
5569;SDS011;2808;51.240;6.794;2023-05-10T01:56:55;14.77;;;9.33;;
5569;SDS011;2808;51.240;6.794;2023-05-10T01:59:27;17.37;;;9.67;;
5569;SDS011;2808;51.240;6.794;2023-05-10T02:01:57;15.20;;;9.93;;
5569;SDS011;2808;51.240;6.794;2023-05-10T02:04:27;17.00;;;10.57;;
5569;SDS011;2808;51.240;6.794;2023-05-10T02:06:55;16.77;;;10.60;;
5569;SDS011;2808;51.240;6.794;2023-05-10T02:09:23;16.90;;;10.70;;
5569;SDS011;2808;51.240;6.794;2023-05-10T02:11:54;17.17;;;9.37;;
5569;SDS011;2808;51.240;6.794;2023-05-10T02:14:24;16.37;;;9.67;;
5569;SDS011;2808;51.240;6.794;2023-05-10T02:16:55;16.40;;;10.30;;
5569;SDS011;2808;51.240;6.794;2023-05-10T02:19:24;18.27;;;10.00;;
5569;SDS011;2808;51.240;6.794;2023-05-10T02:21:54;16.20;;;9.97;;
5569;SDS011;2808;51.240;6.794;2023-05-10T02:24:23;18.23;;;10.40;;
5569;SDS011;2808;51.240;6.794;2023-05-10T02:26:52;15.63;;;9.63;;
5569;SDS011;2808;51.240;6.794;2023-05-10T02:29:21;16.00;;;9.80;;
5569;SDS011;2808;51.240;6.794;2023-05-10T02:31:51;15.70;;;10.10;;
5569;SDS011;2808;51.240;6.794;2023-05-10T02:34:19;16.20;;;9.90;;
5569;SDS011;2808;51.240;6.794;2023-05-10T02:36:47;16.07;;;11.10;;
5569;SDS011;2808;51.240;6.794;2023-05-10T02:39:18;15.30;;;9.67;;
5569;SDS011;2808;51.240;6.794;2023-05-10T02:41:46;17.73;;;9.83;;
5569;SDS011;2808;51.240;6.794;2023-05-10T02:44:16;14.57;;;8.93;;
5569;SDS011;2808;51.240;6.794;2023-05-10T02:46:45;15.97;;;9.60;;
5569;SDS011;2808;51.240;6.794;2023-05-10T02:49:13;17.50;;;9.17;;
5569;SDS011;2808;51.240;6.794;2023-05-10T02:51:42;14.30;;;9.23;;
5569;SDS011;2808;51.240;6.794;2023-05-10T02:54:20;14.27;;;8.27;;
5569;SDS011;2808;51.240;6.794;2023-05-10T02:56:51;14.10;;;8.10;;
5569;SDS011;2808;51.240;6.794;2023-05-10T02:59:23;12.87;;;8.10;;
5569;SDS011;2808;51.240;6.794;2023-05-10T03:01:51;12.73;;;8.47;;
5569;SDS011;2808;51.240;6.794;2023-05-10T03:04:18;12.60;;;8.10;;
5569;SDS011;2808;51.240;6.794;2023-05-10T03:06:45;16.17;;;9.00;;
5569;SDS011;2808;51.240;6.794;2023-05-10T03:09:13;14.03;;;8.30;;
5569;SDS011;2808;51.240;6.794;2023-05-10T03:11:47;18.63;;;8.33;;
5569;SDS011;2808;51.240;6.794;2023-05-10T03:14:23;14.70;;;8.57;;
5569;SDS011;2808;51.240;6.794;2023-05-10T03:17:10;15.37;;;8.90;;
5569;SDS011;2808;51.240;6.794;2023-05-10T03:19:43;13.10;;;8.30;;
5569;SDS011;2808;51.240;6.794;2023-05-10T03:22:17;18.30;;;9.40;;
5569;SDS011;2808;51.240;6.794;2023-05-10T03:24:51;13.57;;;8.80;;
5569;SDS011;2808;51.240;6.794;2023-05-10T03:27:21;13.63;;;8.67;;
5569;SDS011;2808;51.240;6.794;2023-05-10T03:29:51;15.00;;;8.30;;
5569;SDS011;2808;51.240;6.794;2023-05-10T03:32:21;16.20;;;8.53;;
5569;SDS011;2808;51.240;6.794;2023-05-10T03:34:48;16.57;;;9.23;;
5569;SDS011;2808;51.240;6.794;2023-05-10T03:37:16;13.30;;;8.83;;
5569;SDS011;2808;51.240;6.794;2023-05-10T03:39:43;15.97;;;9.37;;
5569;SDS011;2808;51.240;6.794;2023-05-10T03:42:10;16.00;;;9.03;;
5569;SDS011;2808;51.240;6.794;2023-05-10T03:44:39;15.80;;;9.13;;
5569;SDS011;2808;51.240;6.794;2023-05-10T03:47:07;16.10;;;8.90;;
5569;SDS011;2808;51.240;6.794;2023-05-10T03:49:34;20.13;;;9.60;;
5569;SDS011;2808;51.240;6.794;2023-05-10T03:52:01;14.90;;;8.80;;
5569;SDS011;2808;51.240;6.794;2023-05-10T03:54:30;17.80;;;10.00;;
5569;SDS011;2808;51.240;6.794;2023-05-10T03:56:58;20.30;;;10.40;;
5569;SDS011;2808;51.240;6.794;2023-05-10T03:59:25;19.53;;;11.27;;
5569;SDS011;2808;51.240;6.794;2023-05-10T04:01:54;22.80;;;11.50;;
5569;SDS011;2808;51.240;6.794;2023-05-10T04:04:22;19.57;;;11.63;;
5569;SDS011;2808;51.240;6.794;2023-05-10T04:06:49;21.70;;;11.47;;
5569;SDS011;2808;51.240;6.794;2023-05-10T04:09:16;19.07;;;10.40;;
5569;SDS011;2808;51.240;6.794;2023-05-10T04:11:44;20.93;;;12.07;;
5569;SDS011;2808;51.240;6.794;2023-05-10T04:14:11;21.97;;;13.10;;
5569;SDS011;2808;51.240;6.794;2023-05-10T04:16:38;21.40;;;12.90;;
5569;SDS011;2808;51.240;6.794;2023-05-10T04:19:07;26.03;;;12.83;;
5569;SDS011;2808;51.240;6.794;2023-05-10T04:21:35;28.53;;;14.50;;
5569;SDS011;2808;51.240;6.794;2023-05-10T04:24:03;31.97;;;14.47;;
5569;SDS011;2808;51.240;6.794;2023-05-10T04:26:31;29.03;;;13.87;;
5569;SDS011;2808;51.240;6.794;2023-05-10T04:28:58;28.50;;;15.37;;
5569;SDS011;2808;51.240;6.794;2023-05-10T04:31:26;28.53;;;15.50;;
5569;SDS011;2808;51.240;6.794;2023-05-10T04:33:53;32.40;;;16.00;;
5569;SDS011;2808;51.240;6.794;2023-05-10T04:36:22;44.07;;;22.77;;
5569;SDS011;2808;51.240;6.794;2023-05-10T04:38:49;60.53;;;31.43;;
5569;SDS011;2808;51.240;6.794;2023-05-10T04:41:16;36.00;;;17.93;;
5569;SDS011;2808;51.240;6.794;2023-05-10T04:43:45;33.00;;;16.37;;
5569;SDS011;2808;51.240;6.794;2023-05-10T04:46:14;33.00;;;17.27;;
5569;SDS011;2808;51.240;6.794;2023-05-10T04:48:41;32.23;;;17.13;;
5569;SDS011;2808;51.240;6.794;2023-05-10T04:51:09;32.40;;;16.73;;
5569;SDS011;2808;51.240;6.794;2023-05-10T04:53:41;37.13;;;16.73;;
5569;SDS011;2808;51.240;6.794;2023-05-10T04:56:08;32.53;;;17.10;;
5569;SDS011;2808;51.240;6.794;2023-05-10T04:58:35;32.60;;;16.30;;
5569;SDS011;2808;51.240;6.794;2023-05-10T05:01:06;35.93;;;17.10;;
5569;SDS011;2808;51.240;6.794;2023-05-10T05:03:34;42.23;;;17.80;;
5569;SDS011;2808;51.240;6.794;2023-05-10T05:06:02;35.00;;;16.80;;
5569;SDS011;2808;51.240;6.794;2023-05-10T05:08:30;35.33;;;16.93;;
5569;SDS011;2808;51.240;6.794;2023-05-10T05:10:58;36.40;;;18.77;;
5569;SDS011;2808;51.240;6.794;2023-05-10T05:13:26;34.77;;;18.03;;
5569;SDS011;2808;51.240;6.794;2023-05-10T05:15:53;35.30;;;16.87;;
5569;SDS011;2808;51.240;6.794;2023-05-10T05:18:20;31.40;;;16.60;;
5569;SDS011;2808;51.240;6.794;2023-05-10T05:20:48;38.03;;;17.20;;
5569;SDS011;2808;51.240;6.794;2023-05-10T05:23:15;30.43;;;16.03;;
5569;SDS011;2808;51.240;6.794;2023-05-10T05:25:43;35.27;;;18.50;;
5569;SDS011;2808;51.240;6.794;2023-05-10T05:28:13;31.70;;;16.33;;
5569;SDS011;2808;51.240;6.794;2023-05-10T05:30:40;32.27;;;16.67;;
5569;SDS011;2808;51.240;6.794;2023-05-10T05:33:08;29.70;;;15.00;;
5569;SDS011;2808;51.240;6.794;2023-05-10T05:35:35;30.83;;;16.50;;
5569;SDS011;2808;51.240;6.794;2023-05-10T05:38:03;28.27;;;15.47;;
5569;SDS011;2808;51.240;6.794;2023-05-10T05:40:30;71.77;;;37.03;;
5569;SDS011;2808;51.240;6.794;2023-05-10T05:42:57;30.80;;;16.60;;
5569;SDS011;2808;51.240;6.794;2023-05-10T05:45:26;36.40;;;15.87;;
5569;SDS011;2808;51.240;6.794;2023-05-10T05:47:53;27.30;;;14.50;;
5569;SDS011;2808;51.240;6.794;2023-05-10T05:50:21;34.67;;;18.07;;
5569;SDS011;2808;51.240;6.794;2023-05-10T05:52:48;36.80;;;21.70;;
5569;SDS011;2808;51.240;6.794;2023-05-10T05:55:16;32.60;;;14.53;;
5569;SDS011;2808;51.240;6.794;2023-05-10T05:57:43;32.20;;;14.87;;
5569;SDS011;2808;51.240;6.794;2023-05-10T06:00:11;27.83;;;13.57;;
5569;SDS011;2808;51.240;6.794;2023-05-10T06:02:41;23.03;;;14.70;;
5569;SDS011;2808;51.240;6.794;2023-05-10T06:05:08;29.63;;;13.27;;
5569;SDS011;2808;51.240;6.794;2023-05-10T06:07:36;28.80;;;13.73;;
5569;SDS011;2808;51.240;6.794;2023-05-10T06:10:03;27.33;;;13.00;;
5569;SDS011;2808;51.240;6.794;2023-05-10T06:12:32;26.10;;;12.60;;
5569;SDS011;2808;51.240;6.794;2023-05-10T06:14:59;22.43;;;12.10;;
5569;SDS011;2808;51.240;6.794;2023-05-10T06:17:27;26.67;;;12.97;;
5569;SDS011;2808;51.240;6.794;2023-05-10T06:19:56;23.83;;;12.70;;
5569;SDS011;2808;51.240;6.794;2023-05-10T06:22:23;24.10;;;13.43;;
5569;SDS011;2808;51.240;6.794;2023-05-10T06:24:50;31.10;;;14.60;;
5569;SDS011;2808;51.240;6.794;2023-05-10T06:27:18;39.80;;;18.67;;
5569;SDS011;2808;51.240;6.794;2023-05-10T06:29:46;30.60;;;15.07;;
5569;SDS011;2808;51.240;6.794;2023-05-10T06:32:14;33.57;;;16.30;;
5569;SDS011;2808;51.240;6.794;2023-05-10T06:34:41;30.60;;;16.80;;
5569;SDS011;2808;51.240;6.794;2023-05-10T06:37:11;28.73;;;16.80;;
5569;SDS011;2808;51.240;6.794;2023-05-10T06:39:38;37.17;;;17.70;;
5569;SDS011;2808;51.240;6.794;2023-05-10T06:42:05;35.43;;;17.40;;
5569;SDS011;2808;51.240;6.794;2023-05-10T06:44:33;37.57;;;17.23;;
5569;SDS011;2808;51.240;6.794;2023-05-10T06:47:00;31.20;;;16.17;;
5569;SDS011;2808;51.240;6.794;2023-05-10T06:49:27;37.63;;;15.13;;
5569;SDS011;2808;51.240;6.794;2023-05-10T06:51:55;27.33;;;13.57;;
5569;SDS011;2808;51.240;6.794;2023-05-10T06:54:23;32.00;;;14.43;;
5569;SDS011;2808;51.240;6.794;2023-05-10T06:56:51;28.40;;;14.27;;
5569;SDS011;2808;51.240;6.794;2023-05-10T06:59:19;33.53;;;15.70;;
5569;SDS011;2808;51.240;6.794;2023-05-10T07:01:49;31.67;;;15.43;;
5569;SDS011;2808;51.240;6.794;2023-05-10T07:04:16;30.73;;;14.97;;
5569;SDS011;2808;51.240;6.794;2023-05-10T07:06:43;36.43;;;15.10;;
5569;SDS011;2808;51.240;6.794;2023-05-10T07:09:11;39.73;;;15.40;;
5569;SDS011;2808;51.240;6.794;2023-05-10T07:11:40;28.73;;;14.83;;
5569;SDS011;2808;51.240;6.794;2023-05-10T07:14:08;37.03;;;16.17;;
5569;SDS011;2808;51.240;6.794;2023-05-10T07:16:35;38.30;;;17.10;;
5569;SDS011;2808;51.240;6.794;2023-05-10T07:19:02;32.13;;;15.80;;
5569;SDS011;2808;51.240;6.794;2023-05-10T07:21:31;40.53;;;15.97;;
5569;SDS011;2808;51.240;6.794;2023-05-10T07:23:58;37.57;;;17.10;;
5569;SDS011;2808;51.240;6.794;2023-05-10T07:26:26;35.67;;;15.73;;
5569;SDS011;2808;51.240;6.794;2023-05-10T07:28:54;33.97;;;16.33;;
5569;SDS011;2808;51.240;6.794;2023-05-10T07:31:22;31.57;;;15.27;;
5569;SDS011;2808;51.240;6.794;2023-05-10T07:33:49;29.87;;;14.40;;
5569;SDS011;2808;51.240;6.794;2023-05-10T07:36:17;27.67;;;13.43;;
5569;SDS011;2808;51.240;6.794;2023-05-10T07:38:44;31.80;;;15.27;;
5569;SDS011;2808;51.240;6.794;2023-05-10T07:41:12;24.03;;;13.00;;
5569;SDS011;2808;51.240;6.794;2023-05-10T07:43:39;27.80;;;13.83;;
5569;SDS011;2808;51.240;6.794;2023-05-10T07:46:08;21.60;;;12.17;;
5569;SDS011;2808;51.240;6.794;2023-05-10T07:48:36;24.37;;;11.90;;
5569;SDS011;2808;51.240;6.794;2023-05-10T07:51:04;22.90;;;11.63;;
5569;SDS011;2808;51.240;6.794;2023-05-10T07:53:34;19.80;;;11.77;;
5569;SDS011;2808;51.240;6.794;2023-05-10T07:58:47;31.33;;;14.50;;
5569;SDS011;2808;51.240;6.794;2023-05-10T08:01:16;34.07;;;16.60;;
5569;SDS011;2808;51.240;6.794;2023-05-10T08:03:44;37.83;;;17.83;;
5569;SDS011;2808;51.240;6.794;2023-05-10T08:06:11;40.37;;;19.70;;
5569;SDS011;2808;51.240;6.794;2023-05-10T08:08:38;45.33;;;19.40;;
5569;SDS011;2808;51.240;6.794;2023-05-10T08:11:06;45.13;;;22.00;;
5569;SDS011;2808;51.240;6.794;2023-05-10T08:13:33;53.00;;;21.43;;
5569;SDS011;2808;51.240;6.794;2023-05-10T08:16:00;49.37;;;21.67;;
5569;SDS011;2808;51.240;6.794;2023-05-10T08:18:29;50.70;;;22.23;;
5569;SDS011;2808;51.240;6.794;2023-05-10T08:20:57;45.63;;;21.63;;
5569;SDS011;2808;51.240;6.794;2023-05-10T08:23:24;45.37;;;22.90;;
5569;SDS011;2808;51.240;6.794;2023-05-10T08:25:51;47.57;;;24.43;;
5569;SDS011;2808;51.240;6.794;2023-05-10T08:28:19;44.57;;;22.80;;
5569;SDS011;2808;51.240;6.794;2023-05-10T08:30:46;50.30;;;23.47;;
5569;SDS011;2808;51.240;6.794;2023-05-10T08:33:14;49.60;;;24.00;;
5569;SDS011;2808;51.240;6.794;2023-05-10T08:35:43;53.20;;;23.63;;
5569;SDS011;2808;51.240;6.794;2023-05-10T08:38:10;52.43;;;24.50;;
5569;SDS011;2808;51.240;6.794;2023-05-10T08:40:39;50.80;;;23.07;;
5569;SDS011;2808;51.240;6.794;2023-05-10T08:43:09;52.53;;;25.53;;
5569;SDS011;2808;51.240;6.794;2023-05-10T08:45:38;49.40;;;23.00;;
5569;SDS011;2808;51.240;6.794;2023-05-10T08:48:07;49.80;;;25.37;;
5569;SDS011;2808;51.240;6.794;2023-05-10T08:50:39;46.33;;;22.30;;
5569;SDS011;2808;51.240;6.794;2023-05-10T08:53:11;44.30;;;22.30;;
5569;SDS011;2808;51.240;6.794;2023-05-10T08:55:41;50.60;;;22.77;;
5569;SDS011;2808;51.240;6.794;2023-05-10T08:58:09;43.87;;;22.00;;
5569;SDS011;2808;51.240;6.794;2023-05-10T09:00:39;45.83;;;24.20;;
5569;SDS011;2808;51.240;6.794;2023-05-10T09:03:07;41.53;;;21.90;;
5569;SDS011;2808;51.240;6.794;2023-05-10T09:05:35;50.57;;;22.87;;
5569;SDS011;2808;51.240;6.794;2023-05-10T09:08:06;42.80;;;20.00;;
5569;SDS011;2808;51.240;6.794;2023-05-10T09:10:37;41.07;;;19.80;;
5569;SDS011;2808;51.240;6.794;2023-05-10T09:13:06;45.50;;;20.43;;
5569;SDS011;2808;51.240;6.794;2023-05-10T09:15:35;39.43;;;18.47;;
5569;SDS011;2808;51.240;6.794;2023-05-10T09:18:03;29.77;;;15.17;;
5569;SDS011;2808;51.240;6.794;2023-05-10T09:20:30;33.93;;;15.43;;
5569;SDS011;2808;51.240;6.794;2023-05-10T09:22:57;30.40;;;14.60;;
5569;SDS011;2808;51.240;6.794;2023-05-10T09:25:26;25.00;;;14.30;;
5569;SDS011;2808;51.240;6.794;2023-05-10T09:27:54;28.17;;;13.43;;
5569;SDS011;2808;51.240;6.794;2023-05-10T09:30:25;26.70;;;15.00;;
5569;SDS011;2808;51.240;6.794;2023-05-10T09:32:54;27.00;;;14.03;;
5569;SDS011;2808;51.240;6.794;2023-05-10T09:35:23;26.77;;;13.40;;
5569;SDS011;2808;51.240;6.794;2023-05-10T09:37:52;25.13;;;13.23;;
5569;SDS011;2808;51.240;6.794;2023-05-10T09:40:21;24.20;;;13.30;;
5569;SDS011;2808;51.240;6.794;2023-05-10T09:42:55;31.67;;;13.10;;
5569;SDS011;2808;51.240;6.794;2023-05-10T09:45:24;23.90;;;13.47;;
5569;SDS011;2808;51.240;6.794;2023-05-10T09:47:59;23.10;;;11.90;;
5569;SDS011;2808;51.240;6.794;2023-05-10T09:50:28;23.40;;;11.93;;
5569;SDS011;2808;51.240;6.794;2023-05-10T09:52:56;20.03;;;11.40;;
5569;SDS011;2808;51.240;6.794;2023-05-10T09:55:37;20.10;;;12.10;;
5569;SDS011;2808;51.240;6.794;2023-05-10T09:58:07;21.37;;;12.13;;
5569;SDS011;2808;51.240;6.794;2023-05-10T10:00:38;22.37;;;12.63;;
5569;SDS011;2808;51.240;6.794;2023-05-10T10:03:11;19.30;;;11.77;;
5569;SDS011;2808;51.240;6.794;2023-05-10T10:05:40;17.30;;;10.27;;
5569;SDS011;2808;51.240;6.794;2023-05-10T10:08:09;20.10;;;10.93;;
5569;SDS011;2808;51.240;6.794;2023-05-10T10:10:37;20.53;;;10.40;;
5569;SDS011;2808;51.240;6.794;2023-05-10T10:13:06;23.40;;;10.70;;
5569;SDS011;2808;51.240;6.794;2023-05-10T10:15:34;19.70;;;10.00;;
5569;SDS011;2808;51.240;6.794;2023-05-10T10:18:02;22.77;;;11.00;;
5569;SDS011;2808;51.240;6.794;2023-05-10T10:20:34;20.97;;;12.57;;
5569;SDS011;2808;51.240;6.794;2023-05-10T10:23:03;26.13;;;12.43;;
5569;SDS011;2808;51.240;6.794;2023-05-10T10:25:30;24.73;;;12.27;;
5569;SDS011;2808;51.240;6.794;2023-05-10T10:28:01;23.20;;;12.20;;
5569;SDS011;2808;51.240;6.794;2023-05-10T10:30:47;24.70;;;12.27;;
5569;SDS011;2808;51.240;6.794;2023-05-10T10:33:33;27.50;;;12.27;;
5569;SDS011;2808;51.240;6.794;2023-05-10T10:36:06;22.73;;;12.10;;
5569;SDS011;2808;51.240;6.794;2023-05-10T10:38:37;26.50;;;13.50;;
5569;SDS011;2808;51.240;6.794;2023-05-10T10:41:28;26.13;;;15.70;;
5569;SDS011;2808;51.240;6.794;2023-05-10T10:47:00;24.13;;;11.80;;
5569;SDS011;2808;51.240;6.794;2023-05-10T10:49:31;19.13;;;10.97;;
5569;SDS011;2808;51.240;6.794;2023-05-10T10:54:57;19.43;;;11.03;;
5569;SDS011;2808;51.240;6.794;2023-05-10T10:57:26;21.60;;;11.13;;
5569;SDS011;2808;51.240;6.794;2023-05-10T11:02:49;25.67;;;12.20;;
5569;SDS011;2808;51.240;6.794;2023-05-10T11:05:34;19.03;;;11.20;;
5569;SDS011;2808;51.240;6.794;2023-05-10T11:08:07;19.00;;;11.10;;
5569;SDS011;2808;51.240;6.794;2023-05-10T11:13:33;25.53;;;12.97;;
5569;SDS011;2808;51.240;6.794;2023-05-10T11:16:15;25.40;;;13.37;;
5569;SDS011;2808;51.240;6.794;2023-05-10T11:18:54;25.73;;;14.43;;
5569;SDS011;2808;51.240;6.794;2023-05-10T11:21:26;26.70;;;13.90;;
5569;SDS011;2808;51.240;6.794;2023-05-10T11:23:54;29.37;;;14.00;;
5569;SDS011;2808;51.240;6.794;2023-05-10T11:26:22;32.47;;;14.90;;
5569;SDS011;2808;51.240;6.794;2023-05-10T11:28:51;27.80;;;16.20;;
5569;SDS011;2808;51.240;6.794;2023-05-10T11:31:22;28.70;;;15.57;;
5569;SDS011;2808;51.240;6.794;2023-05-10T11:33:52;26.47;;;14.33;;
5569;SDS011;2808;51.240;6.794;2023-05-10T11:36:21;29.07;;;16.97;;
5569;SDS011;2808;51.240;6.794;2023-05-10T11:38:50;22.77;;;14.20;;
5569;SDS011;2808;51.240;6.794;2023-05-10T11:41:18;28.33;;;15.17;;
5569;SDS011;2808;51.240;6.794;2023-05-10T11:43:47;21.83;;;14.13;;
5569;SDS011;2808;51.240;6.794;2023-05-10T11:46:16;28.10;;;15.80;;
5569;SDS011;2808;51.240;6.794;2023-05-10T11:48:48;32.17;;;14.70;;
5569;SDS011;2808;51.240;6.794;2023-05-10T11:51:19;23.20;;;13.20;;
5569;SDS011;2808;51.240;6.794;2023-05-10T11:53:48;25.50;;;13.93;;
5569;SDS011;2808;51.240;6.794;2023-05-10T11:56:16;29.60;;;13.73;;
5569;SDS011;2808;51.240;6.794;2023-05-10T11:58:44;19.13;;;11.30;;
5569;SDS011;2808;51.240;6.794;2023-05-10T12:01:12;19.50;;;10.30;;
5569;SDS011;2808;51.240;6.794;2023-05-10T12:03:39;22.00;;;11.50;;
5569;SDS011;2808;51.240;6.794;2023-05-10T12:06:11;19.80;;;10.80;;
5569;SDS011;2808;51.240;6.794;2023-05-10T12:08:43;22.37;;;11.33;;
5569;SDS011;2808;51.240;6.794;2023-05-10T12:11:11;25.70;;;13.63;;
5569;SDS011;2808;51.240;6.794;2023-05-10T12:13:40;23.77;;;12.30;;
5569;SDS011;2808;51.240;6.794;2023-05-10T12:16:15;21.10;;;12.50;;
5569;SDS011;2808;51.240;6.794;2023-05-10T12:18:43;25.87;;;13.17;;
5569;SDS011;2808;51.240;6.794;2023-05-10T12:21:12;28.73;;;14.80;;
5569;SDS011;2808;51.240;6.794;2023-05-10T12:23:40;26.47;;;13.10;;
5569;SDS011;2808;51.240;6.794;2023-05-10T12:26:09;20.10;;;12.00;;
5569;SDS011;2808;51.240;6.794;2023-05-10T12:28:37;20.33;;;12.37;;
5569;SDS011;2808;51.240;6.794;2023-05-10T12:31:05;22.30;;;12.00;;
5569;SDS011;2808;51.240;6.794;2023-05-10T12:33:36;23.30;;;12.00;;
5569;SDS011;2808;51.240;6.794;2023-05-10T12:36:09;18.07;;;11.90;;
5569;SDS011;2808;51.240;6.794;2023-05-10T12:38:39;20.10;;;12.13;;
5569;SDS011;2808;51.240;6.794;2023-05-10T12:41:08;18.83;;;12.00;;
5569;SDS011;2808;51.240;6.794;2023-05-10T12:43:37;25.60;;;13.00;;
5569;SDS011;2808;51.240;6.794;2023-05-10T12:46:06;19.37;;;11.90;;
5569;SDS011;2808;51.240;6.794;2023-05-10T12:48:34;24.13;;;13.17;;
5569;SDS011;2808;51.240;6.794;2023-05-10T12:51:02;23.57;;;13.57;;
5569;SDS011;2808;51.240;6.794;2023-05-10T12:53:31;26.20;;;14.23;;
5569;SDS011;2808;51.240;6.794;2023-05-10T12:55:58;22.17;;;13.00;;
5569;SDS011;2808;51.240;6.794;2023-05-10T12:58:26;19.50;;;12.10;;
5569;SDS011;2808;51.240;6.794;2023-05-10T13:00:53;19.30;;;12.77;;
5569;SDS011;2808;51.240;6.794;2023-05-10T13:03:22;20.67;;;13.27;;
5569;SDS011;2808;51.240;6.794;2023-05-10T13:05:49;23.63;;;13.00;;
5569;SDS011;2808;51.240;6.794;2023-05-10T13:08:16;25.23;;;13.47;;
5569;SDS011;2808;51.240;6.794;2023-05-10T13:10:45;22.80;;;12.73;;
5569;SDS011;2808;51.240;6.794;2023-05-10T13:13:13;21.50;;;12.60;;
5569;SDS011;2808;51.240;6.794;2023-05-10T13:15:40;25.20;;;14.33;;
5569;SDS011;2808;51.240;6.794;2023-05-10T13:18:07;26.57;;;14.63;;
5569;SDS011;2808;51.240;6.794;2023-05-10T13:20:35;31.67;;;15.17;;
5569;SDS011;2808;51.240;6.794;2023-05-10T13:23:02;27.57;;;13.80;;
5569;SDS011;2808;51.240;6.794;2023-05-10T13:25:29;27.80;;;14.10;;
5569;SDS011;2808;51.240;6.794;2023-05-10T13:27:58;21.10;;;13.10;;
5569;SDS011;2808;51.240;6.794;2023-05-10T13:30:25;22.17;;;13.33;;
5569;SDS011;2808;51.240;6.794;2023-05-10T13:32:53;18.73;;;12.43;;
5569;SDS011;2808;51.240;6.794;2023-05-10T13:35:21;20.23;;;13.17;;
5569;SDS011;2808;51.240;6.794;2023-05-10T13:37:48;19.17;;;12.90;;
5569;SDS011;2808;51.240;6.794;2023-05-10T13:40:18;19.80;;;13.30;;
5569;SDS011;2808;51.240;6.794;2023-05-10T13:42:45;19.97;;;12.00;;
5569;SDS011;2808;51.240;6.794;2023-05-10T13:45:14;22.30;;;13.10;;
5569;SDS011;2808;51.240;6.794;2023-05-10T13:47:41;23.93;;;12.70;;
5569;SDS011;2808;51.240;6.794;2023-05-10T13:50:09;19.20;;;11.67;;
5569;SDS011;2808;51.240;6.794;2023-05-10T13:52:36;17.53;;;11.00;;
5569;SDS011;2808;51.240;6.794;2023-05-10T13:55:04;22.30;;;13.33;;
5569;SDS011;2808;51.240;6.794;2023-05-10T13:57:32;23.40;;;12.23;;
5569;SDS011;2808;51.240;6.794;2023-05-10T14:00:01;24.20;;;12.37;;
5569;SDS011;2808;51.240;6.794;2023-05-10T14:02:30;24.50;;;13.93;;
5569;SDS011;2808;51.240;6.794;2023-05-10T14:04:57;20.43;;;12.83;;
5569;SDS011;2808;51.240;6.794;2023-05-10T14:07:25;21.83;;;12.87;;
5569;SDS011;2808;51.240;6.794;2023-05-10T14:09:52;18.80;;;12.03;;
5569;SDS011;2808;51.240;6.794;2023-05-10T14:12:20;22.40;;;12.43;;
5569;SDS011;2808;51.240;6.794;2023-05-10T14:14:47;23.80;;;13.63;;
5569;SDS011;2808;51.240;6.794;2023-05-10T14:17:15;22.73;;;13.53;;
5569;SDS011;2808;51.240;6.794;2023-05-10T14:19:44;21.97;;;12.77;;
5569;SDS011;2808;51.240;6.794;2023-05-10T14:22:14;22.20;;;12.73;;
5569;SDS011;2808;51.240;6.794;2023-05-10T14:24:42;20.70;;;12.33;;
5569;SDS011;2808;51.240;6.794;2023-05-10T14:27:11;19.27;;;12.53;;
5569;SDS011;2808;51.240;6.794;2023-05-10T14:29:39;22.13;;;12.20;;
5569;SDS011;2808;51.240;6.794;2023-05-10T14:32:06;19.10;;;11.70;;
5569;SDS011;2808;51.240;6.794;2023-05-10T14:34:34;20.00;;;11.50;;
5569;SDS011;2808;51.240;6.794;2023-05-10T14:37:04;21.40;;;12.00;;
5569;SDS011;2808;51.240;6.794;2023-05-10T14:39:31;48.60;;;27.40;;
5569;SDS011;2808;51.240;6.794;2023-05-10T14:41:59;21.30;;;12.93;;
5569;SDS011;2808;51.240;6.794;2023-05-10T14:44:28;18.50;;;11.37;;
5569;SDS011;2808;51.240;6.794;2023-05-10T14:46:56;13.73;;;9.20;;
5569;SDS011;2808;51.240;6.794;2023-05-10T14:49:23;15.77;;;9.27;;
5569;SDS011;2808;51.240;6.794;2023-05-10T14:51:51;16.03;;;8.47;;
5569;SDS011;2808;51.240;6.794;2023-05-10T14:54:20;15.30;;;9.80;;
5569;SDS011;2808;51.240;6.794;2023-05-10T14:56:47;12.53;;;8.20;;
5569;SDS011;2808;51.240;6.794;2023-05-10T14:59:14;13.50;;;7.60;;
5569;SDS011;2808;51.240;6.794;2023-05-10T15:01:42;14.20;;;7.47;;
5569;SDS011;2808;51.240;6.794;2023-05-10T15:04:09;16.30;;;9.73;;
5569;SDS011;2808;51.240;6.794;2023-05-10T15:06:38;19.30;;;10.57;;
5569;SDS011;2808;51.240;6.794;2023-05-10T15:09:06;13.90;;;8.73;;
5569;SDS011;2808;51.240;6.794;2023-05-10T15:11:35;12.83;;;6.97;;
5569;SDS011;2808;51.240;6.794;2023-05-10T15:14:02;12.30;;;8.17;;
5569;SDS011;2808;51.240;6.794;2023-05-10T15:16:31;10.53;;;6.60;;